createdAt,value
2017-12-02T00:02:16.644Z,1.30
2017-12-02T00:04:44.261Z,1.20
2017-12-02T00:07:11.897Z,1.20
2017-12-02T00:09:39.742Z,1.20
2017-12-02T00:12:07.380Z,1.20
2017-12-02T00:14:35.055Z,1.30
2017-12-02T00:17:02.682Z,1.20
2017-12-02T00:19:30.312Z,1.30
2017-12-02T00:21:57.956Z,1.10
2017-12-02T00:24:25.576Z,0.90
2017-12-02T00:26:54.011Z,0.80
2017-12-02T00:29:21.659Z,0.80
2017-12-02T00:31:49.404Z,0.90
2017-12-02T00:34:17.067Z,1.00
2017-12-02T00:36:44.690Z,1.10
2017-12-02T00:39:12.446Z,0.90
2017-12-02T00:41:40.069Z,1.00
2017-12-02T00:44:07.693Z,1.00
2017-12-02T00:46:35.514Z,1.00
2017-12-02T00:49:03.143Z,1.10
2017-12-02T00:51:30.799Z,1.10
2017-12-02T00:53:58.536Z,1.20
2017-12-02T00:56:26.160Z,1.20
2017-12-02T00:58:53.822Z,1.20
2017-12-02T01:01:21.457Z,1.30
2017-12-02T01:03:49.135Z,1.30
2017-12-02T01:06:16.761Z,1.30
2017-12-02T01:08:44.377Z,1.20
2017-12-02T01:11:12.028Z,1.20
2017-12-02T01:13:39.718Z,1.10
2017-12-02T01:16:07.361Z,1.20
2017-12-02T01:18:34.973Z,1.20
2017-12-02T01:21:02.600Z,1.20
2017-12-02T01:23:30.264Z,1.20
2017-12-02T01:25:57.898Z,1.20
2017-12-02T01:28:25.541Z,1.20
2017-12-02T01:30:53.160Z,1.20
2017-12-02T01:33:21.576Z,1.20
2017-12-02T01:35:49.413Z,1.10
2017-12-02T01:38:17.050Z,1.20
2017-12-02T01:40:44.702Z,1.10
2017-12-02T01:43:12.326Z,1.10
2017-12-02T01:45:39.954Z,1.10
2017-12-02T01:48:07.814Z,1.20
2017-12-02T01:50:36.206Z,1.30
2017-12-02T01:53:03.859Z,1.20
2017-12-02T01:55:31.487Z,1.30
2017-12-02T01:57:59.900Z,1.40
2017-12-02T02:00:27.550Z,1.40
2017-12-02T02:02:55.325Z,1.30
2017-12-02T02:05:22.966Z,1.20
2017-12-02T02:07:50.587Z,1.10
2017-12-02T02:10:18.290Z,1.10
2017-12-02T02:12:45.944Z,1.20
2017-12-02T02:15:13.564Z,1.20
2017-12-02T02:17:41.215Z,1.20
2017-12-02T02:20:09.719Z,1.30
2017-12-02T02:22:37.419Z,1.30
2017-12-02T02:25:05.111Z,1.30
2017-12-02T02:27:32.733Z,1.20
2017-12-02T02:30:01.149Z,1.40
2017-12-02T02:32:28.819Z,1.30
2017-12-02T02:34:56.478Z,1.50
2017-12-02T02:37:24.093Z,1.50
2017-12-02T02:39:51.773Z,1.50
2017-12-02T02:42:20.197Z,1.50
2017-12-02T02:44:47.876Z,1.50
2017-12-02T02:47:15.530Z,1.50
2017-12-02T02:49:43.179Z,1.50
2017-12-02T02:52:11.571Z,1.50
2017-12-02T02:54:39.356Z,1.50
2017-12-02T02:57:06.992Z,1.50
2017-12-02T02:59:34.651Z,1.50
2017-12-02T03:02:02.297Z,1.40
2017-12-02T03:04:29.909Z,1.30
2017-12-02T03:06:57.569Z,1.30
2017-12-02T03:09:25.322Z,1.30
2017-12-02T03:11:52.983Z,1.30
2017-12-02T03:14:20.602Z,1.20
2017-12-02T03:16:48.337Z,1.30
2017-12-02T03:19:15.985Z,1.20
2017-12-02T03:21:43.613Z,1.30
2017-12-02T03:24:12.026Z,1.10
2017-12-02T03:26:39.725Z,1.10
2017-12-02T03:29:08.166Z,1.10
2017-12-02T03:31:35.809Z,1.10
2017-12-02T03:34:03.432Z,1.20
2017-12-02T03:36:31.087Z,1.20
2017-12-02T03:38:58.793Z,1.20
2017-12-02T03:41:26.415Z,1.20
2017-12-02T03:43:54.094Z,1.20
2017-12-02T03:46:21.714Z,1.20
2017-12-02T03:48:50.126Z,1.20
2017-12-02T03:51:17.748Z,1.10
2017-12-02T03:53:45.547Z,1.20
2017-12-02T03:56:13.237Z,1.20
2017-12-02T03:58:41.621Z,1.20
2017-12-02T04:01:09.457Z,1.10
2017-12-02T04:03:37.086Z,1.20
2017-12-02T04:06:05.474Z,1.10
2017-12-02T04:08:33.137Z,1.00
2017-12-02T04:11:00.771Z,1.00
2017-12-02T04:13:28.517Z,1.00
2017-12-02T04:15:56.166Z,1.10
2017-12-02T04:18:23.807Z,1.10
2017-12-02T04:20:51.469Z,1.10
2017-12-02T04:23:19.103Z,0.90
2017-12-02T04:25:46.755Z,0.80
2017-12-02T04:28:14.401Z,0.80
2017-12-02T04:30:42.018Z,0.80
2017-12-02T04:33:10.449Z,0.90
2017-12-02T04:35:38.328Z,0.80
2017-12-02T04:38:06.073Z,0.80
2017-12-02T04:40:33.694Z,0.90
2017-12-02T04:43:01.314Z,0.80
2017-12-02T04:45:28.966Z,0.80
2017-12-02T04:47:56.621Z,0.80
2017-12-02T04:50:24.277Z,0.70
2017-12-02T04:52:51.974Z,0.70
2017-12-02T04:55:20.362Z,0.70
2017-12-02T04:57:48.034Z,0.60
2017-12-02T05:00:15.750Z,0.60
2017-12-02T05:02:43.413Z,0.70
2017-12-02T05:05:11.040Z,0.70
2017-12-02T05:07:38.730Z,0.70
2017-12-02T05:10:06.379Z,0.70
2017-12-02T05:12:34.005Z,0.70
2017-12-02T05:15:01.663Z,0.70
2017-12-02T05:17:29.370Z,0.70
2017-12-02T05:19:57.030Z,0.70
2017-12-02T05:22:24.677Z,0.80
2017-12-02T05:24:52.300Z,0.80
2017-12-02T05:27:19.949Z,0.80
2017-12-02T05:29:47.625Z,0.90
2017-12-02T05:32:15.355Z,0.80
2017-12-02T05:34:43.004Z,0.80
2017-12-02T05:37:10.635Z,0.80
2017-12-02T05:39:39.058Z,0.80
2017-12-02T05:42:06.676Z,0.70
2017-12-02T05:44:34.309Z,0.70
2017-12-02T05:47:01.970Z,0.70
2017-12-02T05:49:29.751Z,0.80
2017-12-02T05:51:57.398Z,0.80
2017-12-02T05:54:25.060Z,0.90
2017-12-02T05:56:52.681Z,0.80
2017-12-02T05:59:20.331Z,0.80
2017-12-02T06:01:47.960Z,0.80
2017-12-02T06:04:15.640Z,0.80
2017-12-02T06:06:43.262Z,0.80
2017-12-02T06:09:10.885Z,0.70
2017-12-02T06:11:38.691Z,0.70
2017-12-02T06:14:06.308Z,0.60
2017-12-02T06:16:33.990Z,0.60
2017-12-02T06:19:02.373Z,0.50
2017-12-02T06:21:30.017Z,0.40
2017-12-02T06:23:57.689Z,0.50
2017-12-02T06:26:25.329Z,0.40
2017-12-02T06:28:52.971Z,0.40
2017-12-02T06:31:20.595Z,0.40
2017-12-02T06:33:48.982Z,0.30
2017-12-02T06:36:16.670Z,0.30
2017-12-02T06:38:44.306Z,0.30
2017-12-02T06:41:11.988Z,0.30
2017-12-02T06:43:39.691Z,0.40
2017-12-02T06:46:07.297Z,0.40
2017-12-02T06:48:34.954Z,0.40
2017-12-02T06:51:02.681Z,0.40
2017-12-02T06:53:31.103Z,0.40
2017-12-02T06:55:58.787Z,0.40
2017-12-02T06:58:26.420Z,0.40
2017-12-02T07:00:54.078Z,0.40
2017-12-02T07:03:21.717Z,0.50
2017-12-02T07:05:49.380Z,0.50
2017-12-02T07:08:17.778Z,0.40
2017-12-02T07:10:45.393Z,0.30
2017-12-02T07:13:13.849Z,0.30
2017-12-02T07:15:41.494Z,0.30
2017-12-02T07:18:09.278Z,0.40
2017-12-02T07:20:36.928Z,0.40
2017-12-02T07:23:04.561Z,0.40
2017-12-02T07:25:33.300Z,0.50
2017-12-02T07:28:01.105Z,0.40
2017-12-02T07:30:29.363Z,0.50
2017-12-02T07:32:57.006Z,0.50
2017-12-02T07:35:24.660Z,0.50
2017-12-02T07:37:53.828Z,0.50
2017-12-02T07:40:21.647Z,0.50
2017-12-02T07:42:51.008Z,0.60
2017-12-02T07:45:18.922Z,0.60
2017-12-02T07:47:46.666Z,0.70
2017-12-02T07:50:14.314Z,0.80
2017-12-02T07:52:41.937Z,0.80
2017-12-02T07:55:09.684Z,0.90
2017-12-02T07:57:37.684Z,0.90
2017-12-02T08:00:06.161Z,0.90
2017-12-02T08:02:33.824Z,0.90
2017-12-02T08:05:01.448Z,0.90
2017-12-02T08:07:29.302Z,1.00
2017-12-02T08:09:56.948Z,1.00
2017-12-02T08:12:24.606Z,1.20
2017-12-02T08:14:53.895Z,1.10
2017-12-02T08:17:21.538Z,1.20
2017-12-02T08:19:49.428Z,1.30
2017-12-02T08:22:17.170Z,1.30
2017-12-02T08:24:45.576Z,1.50
2017-12-02T08:27:13.242Z,1.40
2017-12-02T08:29:41.176Z,1.40
2017-12-02T08:32:08.853Z,1.50
2017-12-02T08:34:36.534Z,1.50
2017-12-02T08:37:04.174Z,1.60
2017-12-02T08:39:31.853Z,1.60
2017-12-02T08:41:59.734Z,1.70
2017-12-02T08:44:27.391Z,1.60
2017-12-02T08:46:55.027Z,1.70
2017-12-02T08:49:22.646Z,1.60
2017-12-02T08:51:50.742Z,1.60
2017-12-02T08:54:18.847Z,1.60
2017-12-02T08:56:46.509Z,1.70
2017-12-02T08:59:14.176Z,1.70
2017-12-02T09:01:41.887Z,1.70
2017-12-02T09:04:10.331Z,1.80
2017-12-02T09:06:37.950Z,1.70
2017-12-02T09:09:05.598Z,1.70
2017-12-02T09:11:33.218Z,1.80
2017-12-02T09:14:01.012Z,1.70
2017-12-02T09:16:28.671Z,1.80
2017-12-02T09:18:56.306Z,1.80
2017-12-02T09:21:24.752Z,1.90
2017-12-02T09:23:52.622Z,1.90
2017-12-02T09:26:20.263Z,2.00
2017-12-02T09:28:47.994Z,2.10
2017-12-02T09:31:15.674Z,2.20
2017-12-02T09:33:43.340Z,2.10
2017-12-02T09:36:11.738Z,2.40
2017-12-02T09:38:39.430Z,2.30
2017-12-02T09:41:07.082Z,2.40
2017-12-02T09:43:34.709Z,2.30
2017-12-02T09:46:02.374Z,2.30
2017-12-02T09:48:30.015Z,2.50
2017-12-02T09:50:57.872Z,2.70
2017-12-02T09:53:26.131Z,2.80
2017-12-02T09:55:54.143Z,3.00
2017-12-02T09:58:22.601Z,3.20
2017-12-02T10:00:50.292Z,3.50
2017-12-02T10:03:17.918Z,3.50
2017-12-02T10:05:45.566Z,3.30
2017-12-02T10:08:13.241Z,3.40
2017-12-02T10:10:41.081Z,3.60
2017-12-02T10:13:08.731Z,3.60
2017-12-02T10:15:36.350Z,3.50
2017-12-02T10:18:04.539Z,3.40
2017-12-02T10:20:32.154Z,3.40
2017-12-02T10:23:00.347Z,3.40
2017-12-02T10:25:28.006Z,3.60
2017-12-02T10:27:56.767Z,3.80
2017-12-02T10:30:24.457Z,3.80
2017-12-02T10:32:52.118Z,3.80
2017-12-02T10:35:19.782Z,3.50
2017-12-02T10:37:47.401Z,3.60
2017-12-02T10:40:15.101Z,3.60
2017-12-02T10:42:42.905Z,3.40
2017-12-02T10:45:11.511Z,3.30
2017-12-02T10:47:40.174Z,3.30
2017-12-02T10:50:07.821Z,3.20
2017-12-02T10:52:36.731Z,3.20
2017-12-02T10:55:05.136Z,3.10
2017-12-02T10:57:32.749Z,3.10
2017-12-02T11:00:01.335Z,2.80
2017-12-02T11:02:28.953Z,2.80
2017-12-02T11:04:57.111Z,2.80
2017-12-02T11:07:25.530Z,2.80
2017-12-02T11:09:53.185Z,2.80
2017-12-02T11:12:20.870Z,2.90
2017-12-02T11:14:49.556Z,3.10
2017-12-02T11:17:18.350Z,3.10
2017-12-02T11:22:20.884Z,3.00
2017-12-02T11:24:48.682Z,3.00
2017-12-02T11:27:16.310Z,3.10
2017-12-02T11:29:46.170Z,3.10
2017-12-02T11:32:14.799Z,3.00
2017-12-02T11:34:42.424Z,2.90
2017-12-02T11:37:13.096Z,2.90
2017-12-02T11:39:40.885Z,2.90
2017-12-02T11:42:08.692Z,3.00
2017-12-02T11:44:38.610Z,2.90
2017-12-02T11:47:07.011Z,3.10
2017-12-02T11:49:34.709Z,3.10
2017-12-02T11:52:02.331Z,2.80
2017-12-02T11:54:29.954Z,2.80
2017-12-02T11:56:57.645Z,3.00
2017-12-02T11:59:25.424Z,3.10
2017-12-02T12:01:53.081Z,3.30
2017-12-02T12:04:20.694Z,3.30
2017-12-02T12:06:49.074Z,3.30
2017-12-02T12:09:17.486Z,3.30
2017-12-02T12:11:45.777Z,3.30
2017-12-02T12:14:13.419Z,3.20
2017-12-02T12:16:41.626Z,3.30
2017-12-02T12:19:09.325Z,3.10
2017-12-02T12:21:36.971Z,3.00
2017-12-02T12:24:04.626Z,3.10
2017-12-02T12:26:32.312Z,2.90
2017-12-02T12:28:59.950Z,2.90
2017-12-02T12:31:27.586Z,3.20
2017-12-02T12:33:56.106Z,3.40
2017-12-02T12:36:28.407Z,3.40
2017-12-02T12:38:56.855Z,3.20
2017-12-02T12:41:24.470Z,3.10
2017-12-02T12:43:52.097Z,3.10
2017-12-02T12:46:19.763Z,2.80
2017-12-02T12:48:47.384Z,2.80
2017-12-02T12:51:15.049Z,2.90
2017-12-02T12:53:42.669Z,3.00
2017-12-02T12:56:10.288Z,2.70
2017-12-02T12:58:38.768Z,2.50
2017-12-02T13:01:06.387Z,2.50
2017-12-02T13:03:34.045Z,2.60
2017-12-02T13:06:02.452Z,2.90
2017-12-02T13:08:30.075Z,2.80
2017-12-02T13:10:57.745Z,2.90
2017-12-02T13:13:26.197Z,3.20
2017-12-02T13:15:53.856Z,3.00
2017-12-02T13:18:21.503Z,3.20
2017-12-02T13:20:49.146Z,3.20
2017-12-02T13:23:16.802Z,3.30
2017-12-02T13:25:44.424Z,3.40
2017-12-02T13:28:12.075Z,3.40
2017-12-02T13:30:39.794Z,3.40
2017-12-02T13:33:08.261Z,3.40
2017-12-02T13:35:36.683Z,3.30
2017-12-02T13:38:04.312Z,3.30
2017-12-02T13:40:31.970Z,3.20
2017-12-02T13:42:59.718Z,3.20
2017-12-02T13:45:27.365Z,3.20
2017-12-02T13:47:55.011Z,3.10
2017-12-02T13:50:22.668Z,3.10
2017-12-02T13:52:50.289Z,3.10
2017-12-02T13:55:17.921Z,3.00
2017-12-02T13:57:46.330Z,2.80
2017-12-02T14:00:13.945Z,2.70
2017-12-02T14:02:41.620Z,2.90
2017-12-02T14:05:09.379Z,2.90
2017-12-02T14:07:37.006Z,2.80
2017-12-02T14:10:04.662Z,2.70
2017-12-02T14:12:32.287Z,2.60
2017-12-02T14:14:59.971Z,2.80
2017-12-02T14:17:27.610Z,2.70
2017-12-02T14:19:55.338Z,2.60
2017-12-02T14:22:22.996Z,2.70
2017-12-02T14:24:50.629Z,2.70
2017-12-02T14:27:18.422Z,2.70
2017-12-02T14:29:46.050Z,2.80
2017-12-02T14:32:13.676Z,2.90
2017-12-02T14:34:41.329Z,2.90
2017-12-02T14:37:08.955Z,2.90
2017-12-02T14:39:36.621Z,2.80
2017-12-02T14:42:04.242Z,2.70
2017-12-02T14:44:31.871Z,2.60
2017-12-02T14:46:59.576Z,2.60
2017-12-02T14:49:27.213Z,2.50
2017-12-02T14:51:54.864Z,2.40
2017-12-02T14:54:22.509Z,2.40
2017-12-02T14:56:50.128Z,2.40
2017-12-02T14:59:17.823Z,2.40
2017-12-02T15:01:46.257Z,2.30
2017-12-02T15:04:13.913Z,2.30
2017-12-02T15:06:41.533Z,2.40
2017-12-02T15:09:09.309Z,2.30
2017-12-02T15:11:36.964Z,2.30
2017-12-02T15:14:04.608Z,2.30
2017-12-02T15:16:32.277Z,2.20
2017-12-02T15:18:59.898Z,2.20
2017-12-02T15:21:27.523Z,2.30
2017-12-02T15:23:55.182Z,2.30
2017-12-02T15:26:24.334Z,2.30
2017-12-02T15:28:52.007Z,2.30
2017-12-02T15:31:19.728Z,2.30
2017-12-02T15:33:47.358Z,2.30
2017-12-02T15:36:15.773Z,2.20
2017-12-02T15:38:43.393Z,2.10
2017-12-02T15:41:11.100Z,2.10
2017-12-02T15:43:39.516Z,2.00
2017-12-02T15:46:07.145Z,2.00
2017-12-02T15:48:34.789Z,1.90
2017-12-02T15:51:02.417Z,1.90
2017-12-02T15:53:30.895Z,1.80
2017-12-02T15:55:58.752Z,1.80
2017-12-02T15:58:26.371Z,1.80
2017-12-02T16:00:54.054Z,1.80
2017-12-02T16:03:21.688Z,1.80
2017-12-02T16:05:49.447Z,1.80
2017-12-02T16:08:17.069Z,1.80
2017-12-02T16:10:45.463Z,1.80
2017-12-02T16:13:13.117Z,1.80
2017-12-02T16:15:40.735Z,1.80
2017-12-02T16:18:09.187Z,1.80
2017-12-02T16:20:37.574Z,1.80
2017-12-02T16:23:05.310Z,1.70
2017-12-02T16:25:33.013Z,1.70
2017-12-02T16:28:00.635Z,1.70
2017-12-02T16:30:28.382Z,1.60
2017-12-02T16:32:56.038Z,1.60
2017-12-02T16:35:23.826Z,1.70
2017-12-02T16:37:52.421Z,1.70
2017-12-02T16:40:20.846Z,1.70
2017-12-02T16:42:48.572Z,1.70
2017-12-02T16:45:16.203Z,1.60
2017-12-02T16:47:43.834Z,1.70
2017-12-02T16:50:11.494Z,1.60
2017-12-02T16:52:39.138Z,1.60
2017-12-02T16:55:06.802Z,1.60
2017-12-02T16:57:34.439Z,1.60
2017-12-02T17:00:02.056Z,1.60
2017-12-02T17:02:30.500Z,1.50
2017-12-02T17:04:58.199Z,1.40
2017-12-02T17:07:25.863Z,1.50
2017-12-02T17:09:53.498Z,1.40
2017-12-02T17:12:21.161Z,1.50
2017-12-02T17:14:48.821Z,1.50
2017-12-02T17:17:16.449Z,1.50
2017-12-02T17:19:44.110Z,1.50
2017-12-02T17:22:11.778Z,1.40
2017-12-02T17:24:39.415Z,1.50
2017-12-02T17:27:07.103Z,1.40
2017-12-02T17:29:34.731Z,1.40
2017-12-02T17:32:03.169Z,1.40
2017-12-02T17:34:30.830Z,1.40
2017-12-02T17:36:58.672Z,1.40
2017-12-02T17:39:26.337Z,1.50
2017-12-02T17:41:53.969Z,1.60
2017-12-02T17:44:21.662Z,1.50
2017-12-02T17:46:49.369Z,1.40
2017-12-02T17:49:17.026Z,1.40
2017-12-02T17:51:45.495Z,1.50
2017-12-02T17:54:13.878Z,1.60
2017-12-02T17:56:41.513Z,1.50
2017-12-02T17:59:09.925Z,1.60
2017-12-02T18:01:37.594Z,1.50
2017-12-02T18:04:05.238Z,1.50
2017-12-02T18:06:32.935Z,1.40
2017-12-02T18:09:00.651Z,1.40
2017-12-02T18:11:29.041Z,1.40
2017-12-02T18:13:56.709Z,1.30
2017-12-02T18:16:24.340Z,1.30
2017-12-02T18:18:52.005Z,1.30
2017-12-02T18:21:19.662Z,1.20
2017-12-02T18:23:47.395Z,1.10
2017-12-02T18:26:15.066Z,1.10
2017-12-02T18:28:42.743Z,1.10
2017-12-02T18:31:10.403Z,1.10
2017-12-02T18:33:38.043Z,1.10
2017-12-02T18:36:06.441Z,1.10
2017-12-02T18:38:34.117Z,1.00
2017-12-02T18:41:01.747Z,0.90
2017-12-02T18:43:29.449Z,0.90
2017-12-02T18:45:57.921Z,0.90
2017-12-02T18:48:25.574Z,0.90
2017-12-02T18:50:53.258Z,0.90
2017-12-02T18:53:20.899Z,0.90
2017-12-02T18:55:48.766Z,0.90
2017-12-02T18:58:16.398Z,0.80
2017-12-02T19:00:44.076Z,0.80
2017-12-02T19:03:11.783Z,0.70
2017-12-02T19:05:39.409Z,0.70
2017-12-02T19:08:07.189Z,0.70
2017-12-02T19:10:35.304Z,0.70
2017-12-02T19:13:02.930Z,0.70
2017-12-02T19:15:30.627Z,0.70
2017-12-02T19:17:58.297Z,0.70
2017-12-02T19:20:25.997Z,0.70
2017-12-02T19:22:54.389Z,0.80
2017-12-02T19:25:22.018Z,0.80
2017-12-02T19:27:49.808Z,0.80
2017-12-02T19:30:17.429Z,0.80
2017-12-02T19:32:45.093Z,0.90
2017-12-02T19:35:12.715Z,0.90
2017-12-02T19:37:40.350Z,0.90
2017-12-02T19:40:08.704Z,0.80
2017-12-02T19:42:36.369Z,0.80
2017-12-02T19:45:04.087Z,0.80
2017-12-02T19:47:32.489Z,0.70
2017-12-02T19:50:00.142Z,0.70
2017-12-02T19:52:28.893Z,0.80
2017-12-02T19:54:56.524Z,0.80
2017-12-02T19:57:24.244Z,0.80
2017-12-02T19:59:51.957Z,0.80
2017-12-02T20:02:19.614Z,0.80
2017-12-02T20:04:47.273Z,0.90
2017-12-02T20:07:14.906Z,0.80
2017-12-02T20:09:42.563Z,0.70
2017-12-02T20:12:10.196Z,0.70
2017-12-02T20:14:37.880Z,0.70
2017-12-02T20:17:05.534Z,0.80
2017-12-02T20:19:33.160Z,0.90
2017-12-02T20:22:00.826Z,0.90
2017-12-02T20:24:28.473Z,0.90
2017-12-02T20:26:56.118Z,0.90
2017-12-02T20:29:23.777Z,0.80
2017-12-02T20:31:52.170Z,0.70
2017-12-02T20:34:19.818Z,0.70
2017-12-02T20:36:47.470Z,0.70
2017-12-02T20:39:15.094Z,0.70
2017-12-02T20:41:42.762Z,0.70
2017-12-02T20:44:10.391Z,0.70
2017-12-02T20:46:38.858Z,0.70
2017-12-02T20:49:06.557Z,0.70
2017-12-02T20:51:34.183Z,0.70
2017-12-02T20:54:01.838Z,0.80
2017-12-02T20:56:29.466Z,0.70
2017-12-02T20:58:57.134Z,0.70
2017-12-02T21:01:24.799Z,0.60
2017-12-02T21:03:52.411Z,0.60
2017-12-02T21:06:20.091Z,0.60
2017-12-02T21:08:47.718Z,0.60
2017-12-02T21:11:15.434Z,0.70
2017-12-02T21:13:43.066Z,0.70
2017-12-02T21:16:11.468Z,0.70
2017-12-02T21:18:39.169Z,0.60
2017-12-02T21:21:07.551Z,0.80
2017-12-02T21:23:35.249Z,0.70
2017-12-02T21:26:02.868Z,0.80
2017-12-02T21:28:30.505Z,0.70
2017-12-02T21:30:58.241Z,0.70
2017-12-02T21:33:25.882Z,0.70
2017-12-02T21:35:53.561Z,0.70
2017-12-02T21:38:21.213Z,0.80
2017-12-02T21:40:48.873Z,0.80
2017-12-02T21:43:16.537Z,0.80
2017-12-02T21:45:44.700Z,0.80
2017-12-02T21:48:12.356Z,0.80
2017-12-02T21:50:40.096Z,0.90
2017-12-02T21:53:07.791Z,0.90
2017-12-02T21:55:36.297Z,0.90
2017-12-02T21:58:03.921Z,0.80
2017-12-02T22:00:31.617Z,0.80
2017-12-02T22:03:00.043Z,0.80
2017-12-02T22:05:27.666Z,0.70
2017-12-02T22:07:55.462Z,0.70
2017-12-02T22:10:23.524Z,0.70
2017-12-02T22:12:51.200Z,0.70
2017-12-02T22:15:18.871Z,0.70
2017-12-02T22:17:46.551Z,0.70
2017-12-02T22:20:14.226Z,0.70
2017-12-02T22:22:41.865Z,0.70
2017-12-02T22:25:10.313Z,0.70
2017-12-02T22:27:37.954Z,0.60
2017-12-02T22:30:05.592Z,0.70
2017-12-02T22:32:33.305Z,0.70
2017-12-02T22:35:00.965Z,0.70
2017-12-02T22:37:28.788Z,0.70
2017-12-02T22:39:57.211Z,0.60
2017-12-02T22:42:24.830Z,0.50
2017-12-02T22:44:52.484Z,0.60
2017-12-02T22:47:20.999Z,0.60
2017-12-02T22:49:49.479Z,0.60
2017-12-02T22:52:17.114Z,0.50
2017-12-02T22:54:45.516Z,0.50
2017-12-02T22:57:13.170Z,0.40
2017-12-02T22:59:40.811Z,0.50
2017-12-02T23:02:08.569Z,0.50
2017-12-02T23:04:36.227Z,0.50
2017-12-02T23:07:03.885Z,0.50
2017-12-02T23:09:31.552Z,0.60
2017-12-02T23:11:59.988Z,0.50
2017-12-02T23:14:27.893Z,0.50
2017-12-02T23:16:55.545Z,0.50
2017-12-02T23:19:23.281Z,0.50
2017-12-02T23:21:51.674Z,0.50
2017-12-02T23:24:19.385Z,0.40
2017-12-02T23:26:47.050Z,0.40
2017-12-02T23:29:14.716Z,0.40
2017-12-02T23:31:42.443Z,0.30
2017-12-02T23:34:10.069Z,0.30
2017-12-02T23:36:37.717Z,0.20
2017-12-02T23:39:06.138Z,0.10
2017-12-02T23:41:33.770Z,0.00
2017-12-02T23:44:01.430Z,0.00
2017-12-02T23:46:29.209Z,0.00
2017-12-02T23:48:56.864Z,-0.10
2017-12-02T23:51:24.519Z,-0.20
2017-12-02T23:53:52.917Z,-0.30
2017-12-02T23:56:20.568Z,-0.30
2017-12-02T23:58:48.332Z,-0.30
